Search for airport 
image banner adimage banner adimage banner ad
image banner ad

CL60 - Memorial Hospital

Located in Bakersfield, United States

ICAO - CL60, IATA -

Data provided by Airmate  

General information

Coordinates: N35°23'29" W119°0'23"
Elevation is 500 feet MSL.
Magnetic variation is 14° East
View others Airports in California

Operational data

Special qualification required
Current time UTC:
Current local time:
Weather at : KBFL - Meadows Field ( 7 km )
METAR: KBFL 211154Z AUTO 01006KT 10SM CLR 28/M02 A2982 RMK AO2 SLP090 T02781022 10311 20256 53004
TAF: KBFL 211120Z 2112/2212 35005KT P6SM SKC
View NOTAMs / SUP AIP / TFR affecting this airport [VIEW]
Communications frequencies: [VIEW]

Runways:

Airport contact information

Address: Bakersfield United States

Satellite view of CL60